This is the latest recevied weather packets stored in our database for station/object DG2GGP-11. If no packets are shown the sender has not sent any weather packets the latest 10 day(s).
| Time | Temp. | Humidity | Pressure | Rain* | Wind** | Luminosity | Snow |
|---|---|---|---|---|---|---|---|
| 1777811957 | 23.33° C | 41% | 1015.4 hPa | 0 mm | - | 17 W/m² | - |
| 1777811357 | 23.33° C | 41% | 1015.4 hPa | 0 mm | - | 32 W/m² | - |
| 1777810757 | 22.22° C | 42% | 1015.4 hPa | 0 mm | - | 43 W/m² | - |
| 1777810157 | 22.22° C | 43% | 1015.5 hPa | 0 mm | - | 32 W/m² | - |
| 1777809556 | 22.22° C | 42% | 1015.6 hPa | 0 mm | - | 21 W/m² | - |
| 1777808957 | 22.22° C | 43% | 1015.6 hPa | 0 mm | - | 28 W/m² | - |
| 1777808357 | 21.67° C | 42% | 1015.7 hPa | 0 mm | - | 31 W/m² | - |
| 1777807757 | 21.67° C | 42% | 1015.7 hPa | 0 mm | - | 24 W/m² | - |
| 1777807156 | 21.67° C | 43% | 1015.8 hPa | 0 mm | - | 20 W/m² | - |
| 1777806557 | 22.78° C | 42% | 1015.9 hPa | 0 mm | - | 23 W/m² | - |
| 1777805957 | 23.33° C | 41% | 1015.9 hPa | 0 mm | - | 23 W/m² | - |
| 1777805356 | 23.33° C | 40% | 1015.9 hPa | 0 mm | - | 40 W/m² | - |
| 1777804756 | 23.33° C | 41% | 1016 hPa | 0 mm | - | 38 W/m² | - |
| 1777804157 | 22.78° C | 43% | 1016.1 hPa | 0 mm | - | 46 W/m² | - |
| 1777803557 | 22.78° C | 45% | 1016.2 hPa | 0 mm | - | 44 W/m² | - |
| 1777802957 | 22.78° C | 45% | 1016.3 hPa | 0 mm | - | 39 W/m² | - |
| 1777802356 | 21.67° C | 48% | 1016.4 hPa | 0 mm | - | 47 W/m² | - |
| 1777801756 | 21.11° C | 47% | 1016.5 hPa | 0 mm | - | 32 W/m² | - |
| 1777801157 | 21.67° C | 48% | 1016.6 hPa | 0 mm | - | 32 W/m² | - |
| 1777800556 | 22.78° C | 44% | 1016.6 hPa | 0 mm | - | 52 W/m² | - |
| 1777799957 | 21.67° C | 45% | 1016.7 hPa | 0 mm | - | 49 W/m² | - |
| 1777799356 | 21.11° C | 46% | 1016.7 hPa | 0 mm | - | 31 W/m² | - |
| 1777798756 | 21.11° C | 47% | 1016.8 hPa | 0 mm | - | 33 W/m² | - |
| 1777798157 | 21.11° C | 49% | 1016.8 hPa | 0 mm | - | 32 W/m² | - |
| 1777797557 | 21.11° C | 48% | 1016.9 hPa | 0 mm | - | 25 W/m² | - |
* Rain latest hour (hover to see other rain measurements)
** Current wind speed in m/s (hover to see current wind gust speed)